Terminal Aerodrome Forecast
Issued by NWS Twin Cities, MN

Home | Current Version | Previous Version | Graphics & Text | Print | Product List | Glossary On
Versions: 1 2 3 4 5 6 7 8 9 10 11 12 13 14 15 16 17 18 19 20 21 22 23 24 25 26 27 28 29 30 31 32
000
FTUS43 KMPX 191146
TAFMSP
TAF
KMSP 191146Z 1912/2018 15006KT 6SM BR SKC
     FM191430 15006KT 2SM BR OVC004
     FM191900 15008KT 6SM BR BKN050
     FM192300 15006KT 4SM BR OVC012
     FM200600 13004KT 2SM -DZ BR OVC005
     FM201000 13004KT 3/4SM -DZ BR OVC003=

USA.gov is the U.S. government's official web portal to all federal, state and local government web resources and services.